2-й Городок

Карта отелей и гостиниц, располагающихся рядом с аэропортом 2-й Городок :

2-й Городок Курганская область 56° 2' 17.9988" N, 63° 56' 30.0012" E
2-й Городок Курганская область 56° 2' 17.9988" N, 63° 56' 30.0012" E
Код аэродрома ИКАО
H498
Код аэродрома RU
Х498
Координаты
N56.03833° E063.94167°
Превышение над уровнем моря
110
Основная полоса
Курс магнитный
Длина основной ВПП
50
Ширина основной ВПП
50
Покрытие основной ВПП
Твёрдое (бетон)
Освещение ВПП
Нет
Тип: 
Вертодром
Класс аэродрома: 
Принадлежность: 
МО
Статус: 
Недействующий
Сайт: 
E-mail аэродрома: 
Страна: 
Россия
Регион: 
Курганская область
Город: 
Дополнительная информация: 

Найти трансфер

С помощью этой формы Вы можете найти трансфер из аэропорта 2-й Городок в город, аэропорт или вокзал:

Карта места

Javascript is required to view this map.

Погода в аэропортах:

Авиационная погода в Алматы

Регион: 
Погода METAR: 
UAAA 060800Z 02003MPS 5000 BR FU SCT040 BKN100 07/02 Q1021 NOSIG
Время наблюдения
2021-12-06T08:00:00Z
Температура C
7.0
Точка росы
2.0
Направление ветра
20
Скорость ветра (узлы)
6
Метео видимость
3.11
Явления погоды
BR FU
Условия полета
MVFR
Аэропорт подробнее: 

Авиационная погода в Борисполе

Регион: 
Погода METAR: 
UKBB 060700Z 12004MPS 2500 BR OVC003 M00/M01 Q1012 TEMPO 2100 -FZRA -SHSN BKN002 SCT012CB
Время наблюдения
2021-12-06T07:00:00Z
Температура C
0.0
Точка росы
-1.0
Направление ветра
120
Скорость ветра (узлы)
8
Метео видимость
1.55
Явления погоды
BR
Условия полета
LIFR
Аэропорт подробнее: 

Авиационная погода в Угольном

Регион: 
Погода METAR: 
UHMA 060700Z 29016G21MPS 0100 R01/0200N BLSN VV004 M20/M23 Q0975 R01/////// NOSIG RMK TDZ R01/29016G21MPS END R01/28019G21MPS QFE728/0971
Время наблюдения
2021-12-06T07:00:00Z
Температура C
-20.0
Точка росы
-23.0
Направление ветра
290
Скорость ветра (узлы)
31
Метео видимость
0.06
Явления погоды
BLSN
Условия полета
LIFR
Аэропорт подробнее: 

Авиационная погода в аэропорту Бесовец

Регион: 
Погода METAR: 
ULPB 060700Z 09005MPS 9999 -SN OVC010 M06/M08 Q1027 R01/490235 NOSIG RMK QBB310 QFE766/1021
Время наблюдения
2021-12-06T07:00:00Z
Температура C
-6.0
Точка росы
-8.0
Направление ветра
90
Скорость ветра (узлы)
10
Метео видимость
6.21
Явления погоды
-SN
Условия полета
MVFR
Аэропорт подробнее: